메인 페이지
METAR-TAF:

METAR-TAF

공항 :

말라보, 적도 기니

위도: 03-45-18N, 경도: 08-42-31E, 고도: 23m

현재 날씨관측

예보는 40분 전, 09:00시(UTC)에 발표되었습니다.
무풍
온도 28°C
습도 74%
기압 1016 hPa
시정 10km 이상
고도 1000ft 상공 구름 조금
고도 5300ft 상공 구름 많음

METAR: FGSL 200900Z 00000KT 9999 FEW010 BKN053 28/23 Q1016 NOSIG

시각: 10:40 (09:40 UTC)

예보

예보는 4 시간 40분 전, 05:00시(UTC)에 발표되었습니다.
예보 대상 시간: 20일 06시부터 21일 12시까지 (UTC)
서남서8kt
시정 10km 이상
고도 1000ft 상공 구름 보통
일시적
20일 10시부터 20일 16시까지 (UTC)
고도 1000ft 상공 구름 많음
고도 2000ft 상공 구름 조금, 적란운.
뇌우
일시적
20일 22시부터 21일 06시까지 (UTC)
시정: 4000m
고도 800ft 상공 구름 많음
고도 1800ft 상공 구름 조금, 적란운.
뇌우, 비

TAF: FGSL 200500Z 2006/2112 24008KT 9999 SCT010 TEMPO 2010/2016 TS BKN010 FEW020CB TEMPO 2022/2106 4000 TSRA BKN008 FEW018CB

4,000개 이상의 공항 관측 자료 및 예보 (METAR 및 TAF 보고).

지도상에서 검색 가능한 기상관측소가 노란 점과 빨간 점으로 표시되어 있습니다.

기상관측소 명을 보려면 표시 위로 마우스를 이동하세요.

날씨 관측과 예보를 보려면 클릭하세요.

지도 변경 : 확대하려면 엑스 표시가 있는 녹색 버튼, 축소하려면 빼기 표시가 있는 녹색 버튼, 다음 페이지의 지도를 보려면 녹색 화살표를 클릭하세요.


METAR-TAF: